• Join FlightAware (Why Join?)
  • Login
  • US Flag 
03:26AM EDT


 

Airport Tracker/Info


-or-


 

Live Flight TrackerFlight Track Log ✈ RPA3253 ✈ 28-Jul-2013 ✈ KCLT - KMSY

Flight Track Log - Related Links

Times and Time Zones

All times are in EDT time to prevent confusion due to time zone crossing. See the RPA3253 flight status page for this flight to view local times or setup timezone preferences in your user account.

Time Position Orientation Groundspeed Altitude Reporting Facility
EDT Latitude Longitude Course Direction KTS MPH feet Rate Location/Type
10:37PM 35.2353 -80.9594 251° West 160 184 1,600  Level Atlanta Center
10:38PM 35.2544 -80.9714 333° Northwest 165 190 2,200 1,620 Climbing Atlanta Center
10:39PM 35.2933 -81.0261 311° West 225 259 4,100 1,860 Climbing Atlanta Center
10:39PM 35.2881 -81.0694 262° West 246 283 5,300 2,220 Climbing Atlanta Center
10:40PM 35.2481 -81.1447 237° Southwest 272 313 7,700 2,220 Climbing Atlanta Center
10:41PM 35.1078 -81.2772 192° South  Level FlightAware Approximate
10:41PM 35.2061 -81.2222 236° Southwest 277 319 9,800  Level Atlanta Center
10:42PM 35.0579 -81.3725 251° West  Level FlightAware Approximate
10:42PM 35.1639 -81.2950 235° Southwest 295 339 11,300  Level Atlanta Center
10:43PM 35.1139 -81.3881 237° Southwest 321 369 13,600 1,860 Climbing Atlanta Center
10:44PM 35.0594 -81.4811 234° Southwest 340 391 15,100 1,620 Climbing Atlanta Center
10:45PM 35.0050 -81.5792 236° Southwest 353 406 16,900 1,800 Climbing Atlanta Center
10:46PM 34.9617 -81.7019 247° West 363 418 18,800 1,740 Climbing Atlanta Center
10:47PM 34.9264 -81.8219 250° West 368 423 20,400 1,140 Climbing Atlanta Center
10:48PM 34.8656 -81.9250 234° Southwest 373 429 21,100 600 Climbing Atlanta Center
10:49PM 34.8128 -82.0172 235° Southwest 378 435 21,700 840 Climbing Atlanta Center
10:50PM 34.7539 -82.1225 236° Southwest 378 435 22,800 960 Climbing Atlanta Center
10:51PM 34.6950 -82.2275 236° Southwest 378 435 23,700 900 Climbing Atlanta Center
10:52PM 34.6319 -82.3372 235° Southwest 384 442 24,700 1,020 Climbing Atlanta Center
10:53PM 34.5686 -82.4469 235° Southwest 394 453 25,800 1,020 Climbing Atlanta Center
10:55PM 34.4256 -82.6864 234° Southwest 421 484 27,800 900 Climbing Atlanta Center
10:56PM 34.3703 -82.7881 237° Southwest 421 484 28,600 960 Climbing Atlanta Center
10:57PM 34.3003 -82.9047 234° Southwest 434 499 29,800 1,080 Climbing Atlanta Center
10:58PM 34.2303 -83.0211 234° Southwest 429 494 30,800 960 Climbing Atlanta Center
10:59PM 34.1667 -83.1350 236° Southwest 429 494 31,800 900 Climbing Atlanta Center
11:00PM 34.0986 -83.2486 234° Southwest 424 488 32,600 660 Climbing Atlanta Center
11:01PM 34.0325 -83.3619 235° Southwest 424 488 33,200 660 Climbing Atlanta Center
11:02PM 33.9600 -83.4878 235° Southwest 424 488 34,000 360 Climbing Atlanta Center
11:03PM 33.8917 -83.6033 235° Southwest 429 494 34,000  Level Atlanta Center
11:04PM 33.8211 -83.7239 235° Southwest 439 505 34,000  Level Atlanta Center
11:05PM 33.7461 -83.8464 234° Southwest 444 511 34,000  Level Atlanta Center
11:06PM 33.6731 -83.9664 234° Southwest 444 511 34,000  Level Atlanta Center
11:07PM 33.6022 -84.0886 235° Southwest 444 511 34,000  Level Atlanta Center
11:08PM 33.5353 -84.1958 233° Southwest 449 517 34,000  Level Atlanta Center
11:09PM 33.4619 -84.3228 235° Southwest 449 517 34,000  Level Atlanta Center
11:10PM 33.3886 -84.4444 234° Southwest 449 517 34,000  Level Atlanta Center
11:11PM 33.3153 -84.5658 234° Southwest 449 517 34,000  Level Atlanta Center
11:12PM 33.2436 -84.6847 234° Southwest 449 517 34,000  Level Atlanta Center
11:13PM 33.1636 -84.8181 234° Southwest 449 517 34,000  Level Atlanta Center
11:14PM 33.0939 -84.9364 235° Southwest 449 517 34,000  Level Atlanta Center
11:15PM 33.0156 -85.0569 232° Southwest 450 518 34,000  Level Atlanta Center
11:16PM 32.9500 -85.1553 232° Southwest 444 511 34,000  Level Atlanta Center
11:17PM 32.8781 -85.2781 235° Southwest 444 511 34,000  Level Atlanta Center
11:18PM 32.8017 -85.4006 233° Southwest 456 525 34,000  Level Atlanta Center
11:19PM 32.7272 -85.5203 234° Southwest 461 531 34,000  Level Atlanta Center
11:20PM 32.6525 -85.6400 233° Southwest 461 531 34,000  Level Atlanta Center
11:21PM 32.5758 -85.7594 233° Southwest 461 531 34,000  Level Atlanta Center
11:22PM 32.4883 -85.8981 233° Southwest 467 537 34,000  Level Atlanta Center
11:23PM 32.4175 -86.0147 234° Southwest 467 537 34,000  Level Atlanta Center
11:24PM 32.3361 -86.1383 232° Southwest 467 537 34,000  Level Atlanta Center
11:25PM 32.2631 -86.2569 234° Southwest 462 532 34,000  Level Atlanta Center
11:26PM 32.1922 -86.3706 234° Southwest 468 539 34,000  Level Atlanta Center
11:27PM 32.1128 -86.4861 231° Southwest 468 539 34,000  Level Atlanta Center
11:28PM 32.0289 -86.5989 229° Southwest 468 539 34,000  Level Atlanta Center
11:29PM 31.9325 -86.7258 228° Southwest 468 539 34,000  Level Atlanta Center
11:30PM 31.8486 -86.8383 229° Southwest 468 539 34,000  Level Atlanta Center
11:31PM 31.7644 -86.9528 229° Southwest 474 545 34,000  Level Atlanta Center
11:33PM 31.6056 -87.1703 229° Southwest 462 532 34,000  Level Houston Center
11:34PM 31.5242 -87.2847 230° Southwest 458 527 34,000  Level Houston Center
11:35PM 31.4411 -87.3975 229° Southwest 458 527 34,000  Level Houston Center
11:36PM 31.3583 -87.5103 229° Southwest 458 527 34,000  Level Houston Center
11:37PM 31.2750 -87.6222 229° Southwest 456 525 34,000  Level Houston Center
11:38PM 31.1875 -87.7417 229° Southwest 458 527 34,000  Level Houston Center
11:39PM 31.1039 -87.8544 229° Southwest 459 528 34,000  Level Houston Center
11:40PM 31.0194 -87.9667 229° Southwest 461 531 34,000  Level Houston Center
11:41PM 30.9333 -88.0792 228° Southwest 464 534 34,000  Level Houston Center
11:42PM 30.8492 -88.1942 230° Southwest 468 539 34,000  Level Houston Center
11:43PM 30.7633 -88.3069 228° Southwest 465 535 34,000  Level Houston Center
11:44PM 30.6908 -88.4336 236° Southwest 464 534 34,000  Level Houston Center
11:45PM 30.6331 -88.5650 243° Southwest 455 524 34,000 -1,200 Level Houston Center
11:46PM 30.5744 -88.6961 243° Southwest 457 526 31,600 -2,580 Descending Houston Center
11:47PM 30.5178 -88.8256 243° Southwest 451 519 28,900 -2,700 Descending Houston Center
11:48PM 30.4631 -88.9506 243° Southwest 447 514 26,200 -2,640 Descending Houston Center
11:49PM 30.4081 -89.0722 242° Southwest 426 490 23,600 -2,520 Descending Houston Center
11:50PM 30.3631 -89.1914 246° West 408 470 21,200 -2,580 Descending Houston Center
11:51PM 30.3375 -89.2661 248° West 398 458 19,700 -2,580 Descending Houston Center
11:52PM 30.3069 -89.3469 246° West 394 453 18,100 -2,160 Descending Houston Center
11:53PM 30.2781 -89.4236 246° West 384 442 16,500 -2,100 Descending Houston Center
11:54PM 30.2394 -89.5336 248° West 370 426 14,300 -2,220 Descending Houston Center
11:55PM 30.2086 -89.6453 252° West 362 417 12,100 -1,800 Descending Houston Center
11:56PM 30.1889 -89.7542 258° West 343 395 10,700 -1,560 Descending Houston Center
11:57PM 30.1717 -89.8483 258° West 303 349 9,000 -1,860 Descending Houston Center
11:58PM 30.1531 -89.9403 257° West 293 337 7,000 -1,800 Descending Houston Center
11:59PM 30.1367 -90.0272 258° West 281 323 5,400 -1,500 Descending Houston Center
12:00AM 30.1211 -90.1067 257° West 261 300 4,000 -1,440 Descending Houston Center
12:01AM 30.1072 -90.1817 258° West 250 288 2,600 -1,320 Descending Houston Center
12:02AM 30.0667 -90.2247 223° Southwest 224 258 1,400 -1,080 Descending Houston Center
12:03AM 30.0236 -90.2394 196° South 187 215 500 -600 Descending Houston Center
12:04AM 29.9825 -90.2536 197° South 181 208 300 -240 Descending Houston Center
12:06AM 29.9833 -90.2500 245° Southwest  Level FlightAware Approximate
12:13AM 29.9934 -90.2580 245° Southwest  Level Estimated